Disclaimer

Please do not use the information listed here in-flight or in-navigation, as they are not provided to us by the airports but are provided by volunteers, so they might be outdated.

Search


Regions


Airport information page

Radio informations:
Tower (TWR) - 118.4 MHz
Approach (APP) - 142.45 MHz

Airport informations:
Latitude: 44° 32' 00.00" N
Longitude: 001° 07' 30.00" W
Elevation: 84 feet - 26 meters
Operating hours: Remarks
Operating agency: Military
Timezone: UTC+1(+2DT) - Last Sunday in March to last Sunday in October
Fuel: Jet A1+, Jet A1 with icing inhibitor.

100/130 MIL Spec, low lead, aviation gasoline (BLUE)

Runway information:
06/24 - 7900 x 148 feet< - >2408 x 45 meters

Recent METARs:
LFBC 211900Z AUTO 06002KT CAVOK 05/04 Q1011
LFBC 211930Z AUTO VRB02KT 9000 NSC 05/04 Q1011
LFBC 212000Z AUTO 02001KT 9000 NSC 04/03 Q1011

Airport on the map: